createdAt,value
2022-09-23T00:01:38.372Z,100812.97
2022-09-23T00:04:01.778Z,100809.69
2022-09-23T00:06:25.011Z,100809.34
2022-09-23T00:08:49.557Z,100810.81
2022-09-23T00:11:14.374Z,100809.94
2022-09-23T00:13:37.744Z,100820.59
2022-09-23T00:16:03.851Z,100827.00
2022-09-23T00:18:27.105Z,100821.75
2022-09-23T00:20:50.253Z,100814.22
2022-09-23T00:23:13.471Z,100822.50
2022-09-23T00:25:36.625Z,100823.69
2022-09-23T00:28:01.840Z,100827.63
2022-09-23T00:30:25.082Z,100825.53
2022-09-23T00:32:48.422Z,100828.09
2022-09-23T00:35:11.535Z,100819.97
2022-09-23T00:37:34.734Z,100830.63
2022-09-23T00:40:00.045Z,100821.53
2022-09-23T00:42:23.753Z,100827.25
2022-09-23T00:44:49.458Z,100830.94
2022-09-23T00:47:14.829Z,100825.88
2022-09-23T00:49:38.012Z,100822.75
2022-09-23T00:52:06.525Z,100825.94
2022-09-23T00:54:29.739Z,100829.97
2022-09-23T00:56:52.896Z,100819.09
2022-09-23T00:59:16.081Z,100829.72
2022-09-23T01:01:40.886Z,100832.88
2022-09-23T01:04:04.134Z,100822.44
2022-09-23T01:06:29.238Z,100823.22
2022-09-23T01:08:52.509Z,100831.38
2022-09-23T01:11:25.369Z,100823.69
2022-09-23T01:13:53.685Z,100830.16
2022-09-23T01:16:19.875Z,100840.03
2022-09-23T01:18:47.589Z,100825.63
2022-09-23T01:21:29.073Z,100836.84
2022-09-23T01:24:21.846Z,100834.69
2022-09-23T01:27:07.958Z,100835.53
2022-09-23T01:30:08.406Z,100825.59
2022-09-23T01:32:37.708Z,100825.94
2022-09-23T01:35:04.186Z,100820.81
2022-09-23T01:37:29.626Z,100820.19
2022-09-23T01:39:54.962Z,100822.13
2022-09-23T01:42:19.007Z,100823.34
2022-09-23T01:44:44.025Z,100816.97
2022-09-23T01:47:11.078Z,100816.53
2022-09-23T01:49:36.606Z,100821.31
2022-09-23T01:52:01.298Z,100820.88
2022-09-23T01:54:26.336Z,100816.81
2022-09-23T01:56:52.468Z,100824.78
2022-09-23T01:59:18.039Z,100828.25
2022-09-23T02:01:43.174Z,100818.16
2022-09-23T02:04:09.206Z,100832.16
2022-09-23T02:06:35.926Z,100823.38
2022-09-23T02:09:02.345Z,100804.69
2022-09-23T02:11:25.625Z,100823.81
2022-09-23T02:13:50.225Z,100830.44
2022-09-23T02:16:15.605Z,100815.81
2022-09-23T02:18:42.098Z,100827.13
2022-09-23T02:21:06.959Z,100836.41
2022-09-23T02:23:34.850Z,100832.09
2022-09-23T02:25:59.584Z,100828.72
2022-09-23T02:28:25.705Z,100831.06
2022-09-23T02:30:50.162Z,100822.72
2022-09-23T02:33:13.647Z,100827.00
2022-09-23T02:35:38.158Z,100829.09
2022-09-23T02:38:03.819Z,100820.41
2022-09-23T02:40:31.138Z,100827.19
2022-09-23T02:42:59.236Z,100819.28
2022-09-23T02:45:22.375Z,100825.28
2022-09-23T02:47:46.218Z,100818.06
2022-09-23T02:50:10.490Z,100815.72
2022-09-23T02:52:33.783Z,100829.78
2022-09-23T02:54:57.190Z,100829.75
2022-09-23T02:57:21.736Z,100827.75
2022-09-23T02:59:44.673Z,100816.50
2022-09-23T03:02:23.319Z,100821.88
2022-09-23T03:04:50.499Z,100825.00
2022-09-23T03:07:15.420Z,100824.41
2022-09-23T03:09:43.135Z,100834.63
2022-09-23T03:12:11.213Z,100833.06
2022-09-23T03:14:39.413Z,100830.06
2022-09-23T03:17:03.843Z,100835.84
2022-09-23T03:19:28.669Z,100841.41
2022-09-23T03:21:56.399Z,100839.69
2022-09-23T03:24:19.521Z,100835.03
2022-09-23T03:26:45.225Z,100844.66
2022-09-23T03:29:11.316Z,100835.63
2022-09-23T03:31:35.982Z,100832.03
2022-09-23T03:34:00.689Z,100821.38
2022-09-23T03:36:43.145Z,100837.47
2022-09-23T03:39:08.054Z,100837.34
2022-09-23T03:41:35.109Z,100846.06
2022-09-23T03:43:58.786Z,100838.50
2022-09-23T03:46:22.355Z,100845.78
2022-09-23T03:48:46.914Z,100848.94
2022-09-23T03:51:16.160Z,100845.56
2022-09-23T03:53:39.642Z,100847.25
2022-09-23T03:56:03.278Z,100847.34
2022-09-23T03:58:26.556Z,100838.97
2022-09-23T04:00:50.339Z,100842.50
2022-09-23T04:03:13.538Z,100850.22
2022-09-23T04:05:38.088Z,100852.94
2022-09-23T04:08:01.438Z,100853.34
2022-09-23T04:10:24.607Z,100857.16
2022-09-23T04:12:47.782Z,100851.75
2022-09-23T04:15:11.973Z,100848.63
2022-09-23T04:17:35.139Z,100853.84
2022-09-23T04:19:58.283Z,100851.19
2022-09-23T04:22:22.915Z,100855.72
2022-09-23T04:24:45.838Z,100847.53
2022-09-23T04:27:09.095Z,100858.50
2022-09-23T04:29:32.259Z,100861.78
2022-09-23T04:31:55.628Z,100868.13
2022-09-23T04:34:19.346Z,100865.72
2022-09-23T04:36:42.491Z,100870.53
2022-09-23T04:39:07.219Z,100878.19
2022-09-23T04:41:30.785Z,100868.81
2022-09-23T04:43:53.990Z,100869.13
2022-09-23T04:46:17.252Z,100871.41
2022-09-23T04:48:41.450Z,100874.53
2022-09-23T04:51:05.158Z,100876.72
2022-09-23T04:53:29.382Z,100879.53
2022-09-23T04:55:54.037Z,100884.91
2022-09-23T04:58:17.548Z,100871.88
2022-09-23T05:00:40.874Z,100884.06
2022-09-23T05:03:04.131Z,100877.75
2022-09-23T05:05:28.150Z,100887.63
2022-09-23T05:07:51.700Z,100875.50
2022-09-23T05:10:14.973Z,100874.09
2022-09-23T05:12:39.581Z,100878.63
2022-09-23T05:15:02.832Z,100875.88
2022-09-23T05:17:25.974Z,100885.47
2022-09-23T05:19:49.192Z,100875.41
2022-09-23T05:22:12.416Z,100869.88
2022-09-23T05:24:35.646Z,100868.66
2022-09-23T05:26:58.812Z,100865.63
2022-09-23T05:29:23.328Z,100873.13
2022-09-23T05:31:46.399Z,100877.94
2022-09-23T05:34:09.786Z,100884.50
2022-09-23T05:36:37.846Z,100879.00
2022-09-23T05:39:02.275Z,100884.00
2022-09-23T05:41:25.888Z,100892.19
2022-09-23T05:43:49.048Z,100891.69
2022-09-23T05:46:14.224Z,100886.66
2022-09-23T05:48:37.493Z,100898.63
2022-09-23T05:51:00.849Z,100899.47
2022-09-23T05:53:23.979Z,100905.44
2022-09-23T05:55:47.227Z,100915.06
2022-09-23T05:58:10.377Z,100917.06
2022-09-23T06:00:33.669Z,100923.16
2022-09-23T06:02:58.292Z,100927.19
2022-09-23T06:05:21.510Z,100925.72
2022-09-23T06:07:44.903Z,100928.94
2022-09-23T06:10:08.697Z,100932.56
2022-09-23T06:12:31.939Z,100940.16
2022-09-23T06:14:55.133Z,100944.53
2022-09-23T06:17:18.385Z,100943.59
2022-09-23T06:19:42.925Z,100944.63
2022-09-23T06:22:05.962Z,100944.50
2022-09-23T06:24:31.502Z,100943.31
2022-09-23T06:26:55.267Z,100947.56
2022-09-23T06:29:18.841Z,100949.16
2022-09-23T06:31:43.431Z,100950.75
2022-09-23T06:34:11.912Z,100951.19
2022-09-23T06:36:42.989Z,100958.63
2022-09-23T06:39:08.013Z,100958.97
2022-09-23T06:41:31.236Z,100962.47
2022-09-23T06:43:54.560Z,100958.38
2022-09-23T06:46:18.146Z,100961.91
2022-09-23T06:48:46.039Z,100962.13
2022-09-23T06:51:12.289Z,100953.59
2022-09-23T06:53:37.171Z,100956.06
2022-09-23T06:56:02.521Z,100958.72
2022-09-23T06:58:26.842Z,100951.59
2022-09-23T07:00:50.102Z,100957.22
2022-09-23T07:03:13.237Z,100967.69
2022-09-23T07:05:36.917Z,100945.31
2022-09-23T07:08:00.319Z,100952.53
2022-09-23T07:10:24.848Z,100942.19
2022-09-23T07:12:48.132Z,100949.22
2022-09-23T07:15:12.293Z,100943.03
2022-09-23T07:17:36.090Z,100943.75
2022-09-23T07:19:59.343Z,100941.13
2022-09-23T07:22:22.510Z,100949.53
2022-09-23T07:24:46.584Z,100935.84
2022-09-23T07:27:11.272Z,100937.47
2022-09-23T07:29:44.160Z,100938.63
2022-09-23T07:32:13.623Z,100934.56
2022-09-23T07:34:37.374Z,100941.72
2022-09-23T07:37:00.579Z,100944.50
2022-09-23T07:39:23.907Z,100933.59
2022-09-23T07:41:47.162Z,100929.63
2022-09-23T07:44:11.817Z,100918.72
2022-09-23T07:46:36.225Z,100923.47
2022-09-23T07:48:59.524Z,100926.69
2022-09-23T07:51:26.739Z,100929.50
2022-09-23T07:53:50.050Z,100930.84
2022-09-23T07:56:13.602Z,100923.38
2022-09-23T07:58:36.821Z,100925.06
2022-09-23T08:01:04.964Z,100925.84
2022-09-23T08:03:28.506Z,100929.03
2022-09-23T08:05:53.369Z,100930.69
2022-09-23T08:08:17.318Z,100923.31
2022-09-23T08:10:40.569Z,100928.44
2022-09-23T08:13:03.722Z,100925.13
2022-09-23T08:15:28.409Z,100926.66
2022-09-23T08:17:53.072Z,100927.31
2022-09-23T08:20:36.008Z,100918.78
2022-09-23T08:22:59.123Z,100920.56
2022-09-23T08:25:22.834Z,100919.38
2022-09-23T08:27:46.213Z,100909.94
2022-09-23T08:30:10.803Z,100913.25
2022-09-23T08:32:33.765Z,100915.97
2022-09-23T08:34:58.350Z,100910.09
2022-09-23T08:37:21.318Z,100902.28
2022-09-23T08:39:44.696Z,100906.75
2022-09-23T08:42:13.779Z,100912.75
2022-09-23T08:44:47.079Z,100884.38
2022-09-23T08:47:12.072Z,100896.59
2022-09-23T08:49:39.431Z,100893.03
2022-09-23T08:52:07.657Z,100905.22
2022-09-23T08:54:30.899Z,100902.34
2022-09-23T08:56:55.753Z,100893.78
2022-09-23T08:59:21.042Z,100899.31
2022-09-23T09:01:45.682Z,100896.38
2022-09-23T09:04:18.720Z,100899.94
2022-09-23T09:06:52.868Z,100891.50
2022-09-23T09:09:24.549Z,100892.63
2022-09-23T09:11:48.766Z,100873.75
2022-09-23T09:14:18.847Z,100884.97
2022-09-23T09:17:00.728Z,100890.47
2022-09-23T09:19:38.233Z,100872.09
2022-09-23T09:22:01.418Z,100877.25
2022-09-23T09:24:30.353Z,100886.56
2022-09-23T09:26:53.594Z,100883.31
2022-09-23T09:29:34.361Z,100882.38
2022-09-23T09:31:58.859Z,100898.09
2022-09-23T09:34:27.528Z,100879.47
2022-09-23T09:36:52.269Z,100897.66
2022-09-23T09:39:15.804Z,100893.16
2022-09-23T09:41:41.954Z,100886.38
2022-09-23T09:44:10.339Z,100888.28
2022-09-23T09:47:01.603Z,100882.69
2022-09-23T09:49:31.108Z,100877.56
2022-09-23T09:52:12.558Z,100902.41
2022-09-23T09:54:35.784Z,100894.38
2022-09-23T09:57:00.288Z,100890.72
2022-09-23T09:59:25.541Z,100900.19
2022-09-23T10:01:48.726Z,100895.38
2022-09-23T10:04:22.450Z,100906.56
2022-09-23T10:06:45.912Z,100893.94
2022-09-23T10:09:14.097Z,100892.84
2022-09-23T10:11:37.442Z,100898.91
2022-09-23T10:14:12.680Z,100894.41
2022-09-23T10:16:35.944Z,100892.50
2022-09-23T10:18:59.300Z,100896.75
2022-09-23T10:21:27.756Z,100878.75
2022-09-23T10:23:52.599Z,100883.25
2022-09-23T10:26:17.476Z,100884.97
2022-09-23T10:28:43.095Z,100885.81
2022-09-23T10:31:08.658Z,100879.50
2022-09-23T10:33:32.595Z,100874.16
2022-09-23T10:35:57.225Z,100878.50
2022-09-23T10:38:20.538Z,100884.72
2022-09-23T10:41:02.119Z,100882.91
2022-09-23T10:43:46.261Z,100865.03
2022-09-23T10:46:34.512Z,100867.47
2022-09-23T10:49:08.991Z,100867.72
2022-09-23T10:51:35.961Z,100874.63
2022-09-23T10:54:01.517Z,100865.66
2022-09-23T10:56:30.600Z,100859.44
2022-09-23T10:59:21.442Z,100856.66
2022-09-23T11:01:50.638Z,100850.44
2022-09-23T11:04:33.116Z,100853.97
2022-09-23T11:07:07.412Z,100853.97
2022-09-23T11:09:34.902Z,100847.88
2022-09-23T11:12:08.421Z,100854.94
2022-09-23T11:14:42.216Z,100857.63
2022-09-23T11:17:15.704Z,100857.63
2022-09-23T11:20:10.614Z,100856.66
2022-09-23T11:22:45.674Z,100846.91
2022-09-23T11:25:19.334Z,100843.25
2022-09-23T11:27:52.096Z,100836.09
2022-09-23T11:30:15.986Z,100833.41
2022-09-23T11:35:28.052Z,100824.53
2022-09-23T11:37:51.930Z,100818.94
2022-09-23T11:40:17.962Z,100820.78
2022-09-23T11:42:43.726Z,100817.13
2022-09-23T11:45:08.424Z,100825.03
2022-09-23T11:47:34.332Z,100818.94
2022-09-23T11:50:03.988Z,100817.13
2022-09-23T11:52:28.819Z,100812.38
2022-09-23T11:54:53.077Z,100819.94
2022-09-23T11:57:46.072Z,100824.28
2022-09-23T12:00:15.894Z,100818.44
2022-09-23T12:03:00.995Z,100820.88
2022-09-23T12:05:30.063Z,100823.56
2022-09-23T12:07:56.735Z,100816.13
2022-09-23T12:10:19.986Z,100838.75
2022-09-23T12:12:47.783Z,100868.88
2022-09-23T12:15:14.856Z,100869.72
2022-09-23T12:18:26.415Z,100885.63
2022-09-23T12:21:07.707Z,100882.59
2022-09-23T12:23:42.083Z,100891.75
2022-09-23T12:26:05.933Z,100895.78
2022-09-23T12:28:31.223Z,100899.47
2022-09-23T12:30:55.332Z,100889.03
2022-09-23T12:33:24.830Z,100889.97
2022-09-23T12:35:48.089Z,100882.31
2022-09-23T12:38:19.510Z,100874.94
2022-09-23T12:40:44.601Z,100874.34
2022-09-23T12:43:12.205Z,100874.81
2022-09-23T12:45:37.797Z,100872.94
2022-09-23T12:48:01.064Z,100868.22
2022-09-23T12:50:53.140Z,100873.34
2022-09-23T12:53:53.257Z,100861.25
2022-09-23T12:56:18.926Z,100860.69
2022-09-23T12:58:58.933Z,100857.34
2022-09-23T13:01:22.425Z,100854.41
2022-09-23T13:04:04.608Z,100857.53
2022-09-23T13:06:41.313Z,100855.56
2022-09-23T13:09:04.596Z,100855.19
2022-09-23T13:11:30.522Z,100857.28
2022-09-23T13:13:53.784Z,100845.19
2022-09-23T13:16:22.359Z,100849.28
2022-09-23T13:18:55.493Z,100858.56
2022-09-23T13:21:20.125Z,100853.88
2022-09-23T13:23:43.087Z,100850.22
2022-09-23T13:26:12.190Z,100854.25
2022-09-23T13:28:38.334Z,100857.53
2022-09-23T13:31:05.259Z,100863.97
2022-09-23T13:33:31.981Z,100860.53
2022-09-23T13:35:57.094Z,100862.16
2022-09-23T13:38:26.209Z,100865.69
2022-09-23T13:40:49.588Z,100864.81
2022-09-23T13:43:18.919Z,100859.09
2022-09-23T13:45:44.242Z,100861.09
2022-09-23T13:48:08.601Z,100865.34
2022-09-23T13:50:35.075Z,100863.44
2022-09-23T13:52:59.075Z,100866.81
2022-09-23T13:55:30.157Z,100865.75
2022-09-23T13:57:59.175Z,100865.50
2022-09-23T14:00:23.783Z,100866.25
2022-09-23T14:02:48.082Z,100864.44
2022-09-23T14:05:12.498Z,100858.22
2022-09-23T14:07:35.644Z,100851.16
2022-09-23T14:09:58.883Z,100847.41
2022-09-23T14:12:23.011Z,100843.72
2022-09-23T14:14:46.535Z,100839.13
2022-09-23T14:17:10.169Z,100836.47
2022-09-23T14:19:34.811Z,100833.66
2022-09-23T14:21:58.889Z,100827.34
2022-09-23T14:24:24.380Z,100831.72
2022-09-23T14:26:48.513Z,100835.38
2022-09-23T14:29:15.159Z,100833.53
2022-09-23T14:31:38.649Z,100828.06
2022-09-23T14:34:01.847Z,100826.22
2022-09-23T14:36:44.037Z,100825.38
2022-09-23T14:39:08.392Z,100824.53
2022-09-23T14:41:31.515Z,100821.84
2022-09-23T14:43:57.213Z,100820.03
2022-09-23T14:46:20.944Z,100817.34
2022-09-23T14:48:44.232Z,100826.22
2022-09-23T14:51:12.005Z,100825.63
2022-09-23T14:53:41.430Z,100828.28
2022-09-23T14:56:18.446Z,100831.09
2022-09-23T14:58:51.696Z,100812.38
2022-09-23T15:01:34.853Z,100831.75
2022-09-23T15:03:58.408Z,100828.13
2022-09-23T15:06:21.567Z,100828.34
2022-09-23T15:08:46.240Z,100824.25
2022-09-23T15:11:09.194Z,100824.84
2022-09-23T15:13:33.932Z,100826.81
2022-09-23T15:15:57.147Z,100825.47
2022-09-23T15:18:22.365Z,100817.97
2022-09-23T15:20:50.567Z,100817.72
2022-09-23T15:23:35.296Z,100822.84
2022-09-23T15:26:00.167Z,100816.50
2022-09-23T15:28:27.219Z,100807.50
2022-09-23T15:30:50.416Z,100807.50
2022-09-23T15:33:13.977Z,100822.84
2022-09-23T15:35:37.406Z,100819.13
2022-09-23T15:38:01.853Z,100814.63
2022-09-23T15:40:25.434Z,100818.28
2022-09-23T15:42:51.614Z,100822.78
2022-09-23T15:45:15.159Z,100822.22
2022-09-23T15:47:38.306Z,100825.94
2022-09-23T15:50:01.460Z,100822.69
2022-09-23T15:52:24.791Z,100834.69
2022-09-23T15:54:48.016Z,100834.28
2022-09-23T15:57:11.300Z,100830.28
2022-09-23T15:59:38.233Z,100834.28
2022-09-23T16:02:04.283Z,100838.09
2022-09-23T16:04:28.539Z,100835.44
2022-09-23T16:06:51.775Z,100839.97
2022-09-23T16:09:15.127Z,100842.50
2022-09-23T16:11:38.325Z,100847.84
2022-09-23T16:14:01.600Z,100837.66
2022-09-23T16:16:27.798Z,100842.09
2022-09-23T16:18:51.447Z,100846.81
2022-09-23T16:21:15.109Z,100856.88
2022-09-23T16:23:38.922Z,100856.00
2022-09-23T16:26:03.867Z,100854.81
2022-09-23T16:28:27.080Z,100866.34
2022-09-23T16:30:50.237Z,100867.22
2022-09-23T16:33:14.894Z,100868.84
2022-09-23T16:35:37.851Z,100878.88
2022-09-23T16:38:01.047Z,100877.50
2022-09-23T16:40:24.716Z,100879.09
2022-09-23T16:42:47.959Z,100882.41
2022-09-23T16:45:12.154Z,100883.25
2022-09-23T16:47:35.387Z,100889.97
2022-09-23T16:49:59.899Z,100887.94
2022-09-23T16:52:22.840Z,100898.28
2022-09-23T16:54:48.067Z,100893.19
2022-09-23T16:57:13.351Z,100898.38
2022-09-23T16:59:50.446Z,100900.53
2022-09-23T17:02:31.074Z,100901.56
2022-09-23T17:04:54.577Z,100903.81
2022-09-23T17:07:19.113Z,100915.16
2022-09-23T17:09:42.057Z,100922.09
2022-09-23T17:12:07.758Z,100918.25
2022-09-23T17:14:31.098Z,100921.31
2022-09-23T17:16:54.342Z,100920.91
2022-09-23T17:19:17.525Z,100933.91
2022-09-23T17:21:40.758Z,100934.44
2022-09-23T17:24:05.886Z,100931.88
2022-09-23T17:26:29.200Z,100938.38
2022-09-23T17:28:54.349Z,100930.47
2022-09-23T17:31:17.511Z,100931.63
2022-09-23T17:33:41.253Z,100935.78
2022-09-23T17:36:08.058Z,100936.75
2022-09-23T17:38:31.274Z,100946.22
2022-09-23T17:40:56.955Z,100937.72
2022-09-23T17:43:23.636Z,100946.38
2022-09-23T17:45:46.786Z,100947.09
2022-09-23T17:48:10.024Z,100949.25
2022-09-23T17:50:33.186Z,100946.13
2022-09-23T17:52:56.923Z,100947.22
2022-09-23T17:55:20.085Z,100948.06
2022-09-23T17:57:44.643Z,100948.41
2022-09-23T18:00:10.198Z,100952.91
2022-09-23T18:02:35.972Z,100951.22
2022-09-23T18:04:59.130Z,100950.44
2022-09-23T18:07:22.336Z,100953.88
2022-09-23T18:09:45.515Z,100951.00
2022-09-23T18:12:08.823Z,100958.25
2022-09-23T18:14:33.419Z,100946.53
2022-09-23T18:16:56.363Z,100949.59
2022-09-23T18:19:20.511Z,100947.38
2022-09-23T18:21:45.101Z,100941.84
2022-09-23T18:26:52.959Z,100938.56
2022-09-23T18:29:16.139Z,100932.03
2022-09-23T18:31:41.272Z,100934.69
2022-09-23T18:34:06.431Z,100938.53
2022-09-23T18:36:29.783Z,100940.91
2022-09-23T18:38:53.123Z,100929.41
2022-09-23T18:41:16.479Z,100933.94
2022-09-23T18:43:43.145Z,100942.16
2022-09-23T18:46:09.174Z,100937.03
2022-09-23T18:48:52.107Z,100942.91
2022-09-23T18:51:16.630Z,100935.56
2022-09-23T18:53:40.118Z,100928.59
2022-09-23T18:56:06.743Z,100933.84
2022-09-23T18:58:30.179Z,100929.72
2022-09-23T19:00:53.567Z,100938.50
2022-09-23T19:03:17.834Z,100928.28
2022-09-23T19:05:42.446Z,100928.59
2022-09-23T19:08:05.909Z,100929.25
2022-09-23T19:10:29.362Z,100927.00
2022-09-23T19:12:52.703Z,100930.19
2022-09-23T19:15:16.223Z,100933.25
2022-09-23T19:17:39.695Z,100945.13
2022-09-23T19:20:03.498Z,100934.50
2022-09-23T19:22:30.092Z,100937.41
2022-09-23T19:24:53.481Z,100929.63
2022-09-23T19:27:16.899Z,100942.56
2022-09-23T19:29:40.558Z,100941.63
2022-09-23T19:32:04.207Z,100944.78
2022-09-23T19:34:29.335Z,100939.94
2022-09-23T19:36:52.964Z,100937.94
2022-09-23T19:39:18.510Z,100934.38
2022-09-23T19:41:41.660Z,100941.63
2022-09-23T19:44:07.657Z,100936.50
2022-09-23T19:46:32.483Z,100940.34
2022-09-23T19:48:55.995Z,100941.97
2022-09-23T19:51:19.401Z,100945.38
2022-09-23T19:53:43.053Z,100945.44
2022-09-23T19:56:08.089Z,100939.97
2022-09-23T19:58:31.289Z,100938.91
2022-09-23T20:00:54.616Z,100934.50
2022-09-23T20:03:18.315Z,100937.94
2022-09-23T20:05:41.606Z,100942.44
2022-09-23T20:08:05.130Z,100934.56
2022-09-23T20:10:28.354Z,100938.22
2022-09-23T20:12:52.975Z,100938.28
2022-09-23T20:15:16.440Z,100945.31
2022-09-23T20:17:40.118Z,100946.09
2022-09-23T20:20:03.335Z,100941.94
2022-09-23T20:22:32.982Z,100936.59
2022-09-23T20:24:57.054Z,100937.88
2022-09-23T20:27:19.189Z,100946.50
2022-09-23T20:29:43.838Z,100934.84
2022-09-23T20:32:06.821Z,100933.19
2022-09-23T20:34:33.308Z,100939.06
2022-09-23T20:36:56.637Z,100943.53
2022-09-23T20:39:19.873Z,100944.38
2022-09-23T20:41:43.002Z,100941.72
2022-09-23T20:44:07.981Z,100951.44
2022-09-23T20:46:32.665Z,100951.66
2022-09-23T20:48:56.729Z,100942.22
2022-09-23T20:51:19.955Z,100946.19
2022-09-23T20:53:43.166Z,100944.88
2022-09-23T20:56:07.034Z,100940.84
2022-09-23T20:58:30.901Z,100943.94
2022-09-23T21:00:54.197Z,100937.28
2022-09-23T21:03:18.767Z,100930.50
2022-09-23T21:05:42.222Z,100937.31
2022-09-23T21:08:05.462Z,100932.22
2022-09-23T21:10:28.772Z,100921.94
2022-09-23T21:12:51.923Z,100923.53
2022-09-23T21:15:15.255Z,100926.81
2022-09-23T21:17:38.436Z,100927.34
2022-09-23T21:20:04.647Z,100922.63
2022-09-23T21:22:27.771Z,100919.97
2022-09-23T21:25:26.334Z,100921.94
2022-09-23T21:27:37.195Z,100922.75
2022-09-23T21:30:00.494Z,100928.31
2022-09-23T21:32:23.675Z,100930.22
2022-09-23T21:34:46.955Z,100927.72
2022-09-23T21:37:11.609Z,100929.72
2022-09-23T21:39:34.529Z,100925.09
2022-09-23T21:41:57.885Z,100923.03
2022-09-23T21:44:21.081Z,100925.84
2022-09-23T21:46:44.323Z,100930.13
2022-09-23T21:49:09.153Z,100932.28
2022-09-23T21:51:40.493Z,100929.41
2022-09-23T21:54:06.158Z,100929.91
2022-09-23T21:56:29.938Z,100935.84
2022-09-23T21:58:54.188Z,100930.78
2022-09-23T22:01:18.285Z,100925.50
2022-09-23T22:03:41.635Z,100924.66
2022-09-23T22:06:06.235Z,100935.31
2022-09-23T22:08:31.750Z,100930.00
2022-09-23T22:10:56.275Z,100933.69
2022-09-23T22:13:19.306Z,100922.88
2022-09-23T22:15:42.537Z,100935.34
2022-09-23T22:18:06.677Z,100932.72
2022-09-23T22:20:29.963Z,100942.78
2022-09-23T22:22:53.196Z,100944.41
2022-09-23T22:25:16.573Z,100939.84
2022-09-23T22:28:01.190Z,100939.19
2022-09-23T22:30:41.841Z,100944.81
2022-09-23T22:33:07.045Z,100944.34
2022-09-23T22:35:30.196Z,100946.59
2022-09-23T22:37:53.495Z,100942.41
2022-09-23T22:40:16.819Z,100939.00
2022-09-23T22:42:42.361Z,100943.00
2022-09-23T22:45:06.449Z,100940.16
2022-09-23T22:47:29.635Z,100945.16
2022-09-23T22:49:54.631Z,100939.56
2022-09-23T22:52:24.103Z,100947.00
2022-09-23T22:54:47.335Z,100944.50
2022-09-23T22:57:10.539Z,100938.44
2022-09-23T22:59:35.163Z,100933.38
2022-09-23T23:01:58.137Z,100938.72
2022-09-23T23:04:21.976Z,100942.81
2022-09-23T23:06:45.722Z,100932.53
2022-09-23T23:09:10.370Z,100936.91
2022-09-23T23:11:33.533Z,100943.38
2022-09-23T23:13:59.613Z,100926.47
2022-09-23T23:16:25.397Z,100936.06
2022-09-23T23:18:48.591Z,100928.25
2022-09-23T23:21:12.870Z,100935.22
2022-09-23T23:23:39.783Z,100927.38
2022-09-23T23:26:09.798Z,100923.59
2022-09-23T23:28:33.219Z,100934.25
2022-09-23T23:30:56.428Z,100933.69
2022-09-23T23:33:21.124Z,100931.38
2022-09-23T23:35:51.009Z,100939.38
2022-09-23T23:38:14.264Z,100927.16
2022-09-23T23:40:38.324Z,100930.19
2022-09-23T23:43:02.139Z,100931.75
2022-09-23T23:45:25.365Z,100926.22
2022-09-23T23:47:48.491Z,100929.94
2022-09-23T23:50:13.072Z,100925.75
2022-09-23T23:52:36.013Z,100929.94
2022-09-23T23:54:59.126Z,100926.16
2022-09-23T23:57:22.390Z,100933.88
2022-09-23T23:59:45.526Z,100933.28
